This is the latest recevied weather packets stored in our database for station/object SALT. If no packets are shown the sender has not sent any weather packets the latest 1 day(s).
| Time | Temp. | Humidity | Pressure | Rain* | Wind** | Luminosity | Snow |
|---|---|---|---|---|---|---|---|
| 1836274748 | 18.33° C | 41% | 1016.2 hPa | 0 mm | 0 m/s | - | - |
| 1836274146 | 18.33° C | 40% | 1016.1 hPa | 0 mm | 0 m/s | - | - |
| 1778060263 | 7.78° C | 55% | 1020.1 hPa | 0 mm | 0 m/s | - | - |
| 1778059661 | 8.33° C | 54% | 1020.2 hPa | 0 mm | 0 m/s | - | - |
| 1778059058 | 8.33° C | 52% | 1020.3 hPa | 0 mm | 0 m/s | - | - |
| 1778058456 | 8.33° C | 50% | 1020.3 hPa | 0 mm | 0 m/s | - | - |
| 1778057853 | 8.33° C | 47% | 1020.2 hPa | 0 mm | 0 m/s | - | - |
| 1778057250 | 8.89° C | 45% | 1020.2 hPa | 0 mm | 0 m/s | - | - |
| 1778056645 | 8.33° C | 46% | 1020.1 hPa | 0 mm | 0 m/s | - | - |
| 1778056043 | 8.33° C | 45% | 1020 hPa | 0 mm | 0 m/s | - | - |
| 1778055440 | 8.33° C | 44% | 1020 hPa | 0 mm | 0 m/s | - | - |
| 1778054837 | 8.33° C | 43% | 1019.9 hPa | 0 mm | 0 m/s | - | - |
| 1778054235 | 8.33° C | 43% | 1019.9 hPa | 0 mm | 0 m/s | - | - |
| 1778053632 | 8.33° C | 43% | 1019.9 hPa | 0 mm | 0 m/s | - | - |
| 1778053027 | 8.89° C | 42% | 1019.8 hPa | 0 mm | 0 m/s | - | - |
| 1778052425 | 8.89° C | 42% | 1019.8 hPa | 0 mm | 0 m/s | - | - |
| 1778051822 | 8.33° C | 43% | 1019.6 hPa | 0 mm | 0 m/s | - | - |
| 1778051219 | 8.33° C | 46% | 1019.5 hPa | 0 mm | 0 m/s | - | - |
| 1778050617 | 8.33° C | 46% | 1019.4 hPa | 0 mm | 0 m/s | - | - |
| 1778050015 | 8.33° C | 47% | 1019.2 hPa | 0 mm | 0 m/s | - | - |
| 1778049410 | 8.33° C | 52% | 1019.1 hPa | 0 mm | 0 m/s | - | - |
| 1778048807 | 8.33° C | 49% | 1018.9 hPa | 0 mm | 0.89 m/s, 312° | - | - |
| 1778048205 | 8.89° C | 52% | 1018.8 hPa | 0 mm | 3.13 m/s, 324° | - | - |
| 1778047602 | 8.33° C | 57% | 1018.7 hPa | 0 mm | 0.89 m/s, 4° | - | - |
| 1778046999 | 7.78° C | 59% | 1018.5 hPa | 0 mm | 2.68 m/s, 334° | - | - |
* Rain latest 24 hours (hover to see other rain measurements)
** Current wind speed in m/s (hover to see current wind gust speed)